createdAt,value
2022-12-03T00:02:41.163Z,1.33
2022-12-03T00:08:50.315Z,1.47
2022-12-03T00:11:39.339Z,1.37
2022-12-03T00:14:13.447Z,1.44
2022-12-03T00:19:41.627Z,1.52
2022-12-03T00:25:05.060Z,1.54
2022-12-03T00:30:35.149Z,1.72
2022-12-03T00:40:02.933Z,1.55
2022-12-03T00:43:05.578Z,1.51
2022-12-03T00:45:34.444Z,1.48
2022-12-03T00:55:09.817Z,1.48
2022-12-03T00:57:49.870Z,1.46
2022-12-03T01:00:37.839Z,1.52
2022-12-03T01:03:10.847Z,1.49
2022-12-03T01:09:58.171Z,1.45
2022-12-03T01:12:36.109Z,1.57
2022-12-03T01:15:25.485Z,1.60
2022-12-03T01:18:11.439Z,1.58
2022-12-03T01:20:58.449Z,1.55
2022-12-03T01:23:30.126Z,1.66
2022-12-03T01:32:20.764Z,1.61
2022-12-03T01:38:13.122Z,1.61
2022-12-03T01:44:39.438Z,1.73
2022-12-03T01:50:18.913Z,1.77
2022-12-03T01:52:52.852Z,1.72
2022-12-03T01:55:48.462Z,1.70
2022-12-03T01:58:23.251Z,1.66
2022-12-03T02:03:40.349Z,1.68
2022-12-03T02:06:15.727Z,1.84
2022-12-03T02:08:59.400Z,1.98
2022-12-03T02:11:35.586Z,1.87
2022-12-03T02:14:11.231Z,1.81
2022-12-03T02:16:41.350Z,1.87
2022-12-03T02:19:17.140Z,1.91
2022-12-03T02:21:55.695Z,1.96
2022-12-03T02:24:29.470Z,2.09
2022-12-03T02:27:16.735Z,1.99
2022-12-03T02:29:48.509Z,1.97
2022-12-03T02:32:17.857Z,2.00
2022-12-03T02:35:00.112Z,1.98
2022-12-03T02:37:34.306Z,2.03
2022-12-03T02:40:20.689Z,2.18
2022-12-03T02:43:00.901Z,2.00
2022-12-03T02:45:34.788Z,2.10
2022-12-03T02:48:15.434Z,2.19
2022-12-03T02:50:53.606Z,2.04
2022-12-03T02:53:26.769Z,2.10
2022-12-03T02:55:57.525Z,2.23
2022-12-03T03:01:31.048Z,1.94
2022-12-03T03:04:08.088Z,2.06
2022-12-03T03:06:38.859Z,2.05
2022-12-03T03:09:25.106Z,2.12
2022-12-03T03:12:04.524Z,2.10
2022-12-03T03:14:45.221Z,1.95
2022-12-03T03:17:17.839Z,2.12
2022-12-03T03:20:01.467Z,2.19
2022-12-03T03:22:35.967Z,2.08
2022-12-03T03:25:11.406Z,1.95
2022-12-03T03:27:56.855Z,2.04
2022-12-03T03:30:50.820Z,2.20
2022-12-03T03:36:09.002Z,2.04
2022-12-03T03:38:43.698Z,1.91
2022-12-03T03:41:14.294Z,1.99
2022-12-03T03:43:44.819Z,1.99
2022-12-03T03:46:20.423Z,1.96
2022-12-03T03:49:12.012Z,1.92
2022-12-03T03:51:52.062Z,2.06
2022-12-03T03:54:29.774Z,2.01
2022-12-03T03:59:42.494Z,2.00
2022-12-03T04:02:25.416Z,1.90
2022-12-03T04:07:44.217Z,1.99
2022-12-03T04:10:31.250Z,2.22
2022-12-03T04:16:15.263Z,2.03
2022-12-03T04:19:08.444Z,2.05
2022-12-03T04:22:01.484Z,1.91
2022-12-03T04:24:29.492Z,1.85
2022-12-03T04:27:17.160Z,1.97
2022-12-03T04:29:45.472Z,1.75
2022-12-03T04:32:32.989Z,1.86
2022-12-03T04:35:20.529Z,2.18
2022-12-03T04:41:08.112Z,2.22
2022-12-03T04:44:00.331Z,1.97
2022-12-03T04:46:36.111Z,1.97
2022-12-03T04:49:18.756Z,2.00
2022-12-03T04:52:02.774Z,1.96
2022-12-03T04:54:42.093Z,2.01
2022-12-03T04:57:13.883Z,1.97
2022-12-03T04:59:44.649Z,1.79
2022-12-03T05:02:13.129Z,1.99
2022-12-03T05:04:44.061Z,2.12
2022-12-03T05:07:24.734Z,2.20
2022-12-03T05:10:00.593Z,2.03
2022-12-03T05:12:46.818Z,1.93
2022-12-03T05:15:26.909Z,2.11
2022-12-03T05:18:17.615Z,2.05
2022-12-03T05:20:56.472Z,2.05
2022-12-03T05:23:33.295Z,2.00
2022-12-03T05:26:10.262Z,2.06
2022-12-03T05:28:40.853Z,2.04
2022-12-03T05:31:32.152Z,2.18
2022-12-03T05:34:01.163Z,2.11
2022-12-03T05:36:35.062Z,2.04
2022-12-03T05:39:08.887Z,2.00
2022-12-03T05:41:54.903Z,1.95
2022-12-03T05:44:29.519Z,1.90
2022-12-03T05:47:04.384Z,2.02
2022-12-03T05:49:35.045Z,1.86
2022-12-03T05:52:05.323Z,1.82
2022-12-03T05:58:08.889Z,1.92
2022-12-03T06:00:48.734Z,1.91
2022-12-03T06:03:25.212Z,1.80
2022-12-03T06:05:54.095Z,1.86
2022-12-03T06:08:24.078Z,1.77
2022-12-03T06:11:20.204Z,1.83
2022-12-03T06:18:08.200Z,1.92
2022-12-03T06:23:24.009Z,2.10
2022-12-03T06:26:01.180Z,1.98
2022-12-03T06:28:37.659Z,1.96
2022-12-03T06:31:08.393Z,1.87
2022-12-03T06:33:45.766Z,1.92
2022-12-03T06:36:22.571Z,1.84
2022-12-03T06:38:59.238Z,1.89
2022-12-03T06:41:35.820Z,1.81
2022-12-03T06:44:14.124Z,1.96
2022-12-03T06:46:48.473Z,2.01
2022-12-03T06:55:22.261Z,2.04
2022-12-03T06:58:14.360Z,1.99
2022-12-03T07:00:47.060Z,1.99
2022-12-03T07:06:28.068Z,1.90
2022-12-03T07:09:01.073Z,1.99
2022-12-03T07:11:51.657Z,1.96
2022-12-03T07:19:58.777Z,2.39
2022-12-03T07:22:44.388Z,2.18
2022-12-03T07:25:12.624Z,2.08
2022-12-03T07:30:32.534Z,2.03
2022-12-03T07:35:56.568Z,2.07
2022-12-03T07:38:31.718Z,2.32
2022-12-03T07:41:02.838Z,2.08
2022-12-03T07:43:33.188Z,2.02
2022-12-03T07:46:06.199Z,2.03
2022-12-03T07:48:37.659Z,2.16
2022-12-03T07:51:15.270Z,2.21
2022-12-03T07:53:48.411Z,2.24
2022-12-03T07:56:17.521Z,2.28
2022-12-03T08:02:11.309Z,2.28
2022-12-03T08:04:40.922Z,2.37
2022-12-03T08:13:59.647Z,2.29
2022-12-03T08:22:46.420Z,2.44
2022-12-03T08:25:47.695Z,2.53
2022-12-03T08:35:10.265Z,2.51
2022-12-03T08:37:40.021Z,2.34
2022-12-03T08:46:30.119Z,2.79
2022-12-03T08:49:04.208Z,2.74
2022-12-03T08:54:23.683Z,2.88
2022-12-03T08:56:51.857Z,2.82
2022-12-03T08:59:45.518Z,3.05
2022-12-03T09:02:51.957Z,3.41
2022-12-03T09:05:30.512Z,3.10
2022-12-03T09:11:31.917Z,3.23
2022-12-03T09:13:59.882Z,3.39
2022-12-03T09:16:32.652Z,3.66
2022-12-03T09:19:14.228Z,3.66
2022-12-03T09:21:50.627Z,3.36
2022-12-03T09:24:43.745Z,3.38
2022-12-03T09:27:20.806Z,3.82
2022-12-03T09:29:48.998Z,3.96
2022-12-03T09:32:18.762Z,3.86
2022-12-03T09:34:49.415Z,3.79
2022-12-03T09:37:32.842Z,3.62
2022-12-03T09:40:02.310Z,3.58
2022-12-03T09:42:30.524Z,3.90
2022-12-03T09:45:08.862Z,4.32
2022-12-03T09:47:36.751Z,4.35
2022-12-03T09:50:15.873Z,4.17
2022-12-03T09:52:51.176Z,3.71
2022-12-03T09:55:41.299Z,3.82
2022-12-03T09:58:12.843Z,3.51
2022-12-03T10:00:48.614Z,3.42
2022-12-03T10:03:44.374Z,3.51
2022-12-03T10:06:16.608Z,3.32
2022-12-03T10:08:49.060Z,3.81
2022-12-03T10:11:18.662Z,3.90
2022-12-03T10:13:47.762Z,3.87
2022-12-03T10:19:02.598Z,3.99
2022-12-03T10:24:26.977Z,4.08
2022-12-03T10:29:40.696Z,3.83
2022-12-03T10:32:13.442Z,3.82
2022-12-03T10:35:00.455Z,4.10
2022-12-03T10:40:46.117Z,3.92
2022-12-03T10:43:42.225Z,4.08
2022-12-03T10:46:20.226Z,4.14
2022-12-03T10:49:06.522Z,4.19
2022-12-03T10:51:34.564Z,4.25
2022-12-03T10:54:24.521Z,4.13
2022-12-03T10:57:03.089Z,4.05
2022-12-03T10:59:34.157Z,4.08
2022-12-03T11:02:05.997Z,4.27
2022-12-03T11:04:52.229Z,4.01
2022-12-03T11:07:26.796Z,3.88
2022-12-03T11:10:00.549Z,4.03
2022-12-03T11:12:37.216Z,4.08
2022-12-03T11:18:09.227Z,4.08
2022-12-03T11:24:28.632Z,4.40
2022-12-03T11:27:30.792Z,4.31
2022-12-03T11:30:40.260Z,4.26
2022-12-03T11:33:26.654Z,4.29
2022-12-03T11:36:47.827Z,4.09
2022-12-03T11:39:36.491Z,4.05
2022-12-03T11:42:25.488Z,3.84
2022-12-03T11:45:24.352Z,3.96
2022-12-03T11:56:33.940Z,3.63
2022-12-03T11:59:04.297Z,3.88
2022-12-03T12:01:40.540Z,3.95
2022-12-03T12:04:09.435Z,4.13
2022-12-03T12:06:53.476Z,4.25
2022-12-03T12:12:25.357Z,4.05
2022-12-03T12:14:56.187Z,4.40
2022-12-03T12:27:27.431Z,4.21
2022-12-03T12:30:38.471Z,3.85
2022-12-03T12:33:16.702Z,3.94
2022-12-03T12:48:25.224Z,4.39
2022-12-03T12:57:32.423Z,4.49
2022-12-03T13:03:27.819Z,4.17
2022-12-03T13:05:58.158Z,4.08
2022-12-03T13:08:31.821Z,4.08
2022-12-03T13:11:11.299Z,4.10
2022-12-03T13:17:05.295Z,4.32
2022-12-03T13:23:03.646Z,4.55
2022-12-03T13:28:48.739Z,4.45
2022-12-03T13:40:49.522Z,4.60
2022-12-03T13:43:52.714Z,4.55
2022-12-03T13:46:59.799Z,4.10
2022-12-03T13:55:34.872Z,4.21
2022-12-03T13:58:08.104Z,4.15
2022-12-03T14:06:22.428Z,4.37
2022-12-03T14:08:52.924Z,4.31
2022-12-03T14:11:45.641Z,4.10
2022-12-03T14:14:16.002Z,3.95
2022-12-03T14:19:47.003Z,4.32
2022-12-03T14:22:25.734Z,4.41
2022-12-03T14:24:55.002Z,4.25
2022-12-03T14:27:35.876Z,3.96
2022-12-03T14:30:06.969Z,4.03
2022-12-03T14:32:50.547Z,4.28
2022-12-03T14:35:18.939Z,4.25
2022-12-03T14:37:51.205Z,4.19
2022-12-03T14:43:08.886Z,4.04
2022-12-03T14:45:38.641Z,3.94
2022-12-03T14:48:08.677Z,3.93
2022-12-03T14:50:42.076Z,3.83
2022-12-03T14:53:11.091Z,3.78
2022-12-03T14:55:56.225Z,3.74
2022-12-03T14:58:25.922Z,3.89
2022-12-03T15:00:54.568Z,3.71
2022-12-03T15:03:26.048Z,3.79
2022-12-03T15:05:54.268Z,3.77
2022-12-03T15:08:22.899Z,3.70
2022-12-03T15:10:52.103Z,3.80
2022-12-03T15:13:20.664Z,3.58
2022-12-03T15:15:50.569Z,3.55
2022-12-03T15:18:23.648Z,3.40
2022-12-03T15:20:57.258Z,3.58
2022-12-03T15:23:34.543Z,3.70
2022-12-03T15:26:09.037Z,3.80
2022-12-03T15:28:37.640Z,3.93
2022-12-03T15:31:17.996Z,4.17
2022-12-03T15:33:48.628Z,4.02
2022-12-03T15:36:19.165Z,3.91
2022-12-03T15:38:50.386Z,4.14
2022-12-03T15:41:26.929Z,4.02
2022-12-03T15:43:58.179Z,4.36
2022-12-03T15:46:28.169Z,4.63
2022-12-03T15:48:57.376Z,4.47
2022-12-03T15:51:27.790Z,4.23
2022-12-03T15:53:57.590Z,4.16
2022-12-03T15:56:26.044Z,4.09
2022-12-03T15:58:55.234Z,4.18
2022-12-03T16:01:27.821Z,4.07
2022-12-03T16:03:58.491Z,4.25
2022-12-03T16:14:50.527Z,4.21
2022-12-03T16:17:21.376Z,4.17
2022-12-03T16:19:53.924Z,4.38
2022-12-03T16:22:41.378Z,4.32
2022-12-03T16:25:10.477Z,4.32
2022-12-03T16:27:41.821Z,4.31
2022-12-03T16:30:28.918Z,4.52
2022-12-03T16:33:03.185Z,4.50
2022-12-03T16:35:37.011Z,4.48
2022-12-03T16:38:13.152Z,4.57
2022-12-03T16:40:48.384Z,4.47
2022-12-03T16:43:22.309Z,4.51
2022-12-03T16:46:05.063Z,4.51
2022-12-03T16:48:34.304Z,4.79
2022-12-03T16:51:03.569Z,4.64
2022-12-03T16:53:43.550Z,4.38
2022-12-03T16:58:58.092Z,4.38
2022-12-03T17:01:28.094Z,4.19
2022-12-03T17:03:56.745Z,4.20
2022-12-03T17:06:28.119Z,4.08
2022-12-03T17:09:00.322Z,3.85
2022-12-03T17:11:28.699Z,4.12
2022-12-03T17:14:00.277Z,4.19
2022-12-03T17:16:28.581Z,4.22
2022-12-03T17:19:03.697Z,4.38
2022-12-03T17:21:35.009Z,4.15
2022-12-03T17:24:28.297Z,4.18
2022-12-03T17:26:57.547Z,4.19
2022-12-03T17:29:28.614Z,4.23
2022-12-03T17:31:57.603Z,4.35
2022-12-03T17:34:26.302Z,4.31
2022-12-03T17:36:57.878Z,4.22
2022-12-03T17:39:43.652Z,3.94
2022-12-03T17:42:14.210Z,3.77
2022-12-03T17:44:48.150Z,3.90
2022-12-03T17:47:20.003Z,4.06
2022-12-03T17:52:51.547Z,4.25
2022-12-03T18:01:28.636Z,4.01
2022-12-03T18:04:02.717Z,4.15
2022-12-03T18:06:47.019Z,3.99
2022-12-03T18:09:18.525Z,4.09
2022-12-03T18:14:36.983Z,3.90
2022-12-03T18:17:05.573Z,4.07
2022-12-03T18:19:40.303Z,4.08
2022-12-03T18:22:29.128Z,4.25
2022-12-03T18:25:01.865Z,4.08
2022-12-03T18:27:42.254Z,3.74
2022-12-03T18:30:22.605Z,3.69
2022-12-03T18:32:59.028Z,3.80
2022-12-03T18:44:00.628Z,3.76
2022-12-03T18:46:53.157Z,3.75
2022-12-03T18:49:41.230Z,3.91
2022-12-03T18:55:20.456Z,3.54
2022-12-03T18:58:02.252Z,3.62
2022-12-03T19:00:49.362Z,3.61
2022-12-03T19:03:21.200Z,3.51
2022-12-03T19:06:01.690Z,3.55
2022-12-03T19:08:36.170Z,3.74
2022-12-03T19:11:06.232Z,3.59
2022-12-03T19:13:38.942Z,3.39
2022-12-03T19:16:18.038Z,3.30
2022-12-03T19:18:50.863Z,3.34
2022-12-03T19:21:23.033Z,3.19
2022-12-03T19:24:22.709Z,3.53
2022-12-03T19:26:46.590Z,3.58
2022-12-03T19:29:24.985Z,3.59
2022-12-03T19:32:18.040Z,3.21
2022-12-03T19:34:51.760Z,3.43
2022-12-03T19:37:20.843Z,3.39
2022-12-03T19:39:54.225Z,3.26
2022-12-03T19:42:24.547Z,3.32
2022-12-03T19:44:58.122Z,3.25
2022-12-03T19:53:29.307Z,3.16
2022-12-03T19:58:49.112Z,3.32
2022-12-03T20:01:24.832Z,3.18
2022-12-03T20:09:40.454Z,3.42
2022-12-03T20:15:24.849Z,3.40
2022-12-03T20:20:46.078Z,3.59
2022-12-03T20:29:25.560Z,3.53
2022-12-03T20:32:01.152Z,3.44
2022-12-03T20:40:57.830Z,3.46
2022-12-03T20:43:33.333Z,3.43
2022-12-03T20:49:43.007Z,3.32
2022-12-03T21:08:40.988Z,3.44
2022-12-03T21:11:46.674Z,3.57
2022-12-03T21:32:38.780Z,3.49
2022-12-03T21:35:37.964Z,3.40
2022-12-03T21:54:06.551Z,3.35
2022-12-03T21:56:34.433Z,3.51
2022-12-03T21:59:02.290Z,3.55
2022-12-03T22:01:30.250Z,3.78
2022-12-03T22:03:58.187Z,3.81
2022-12-03T22:06:26.092Z,3.82
2022-12-03T22:08:54.071Z,3.61
2022-12-03T22:11:24.345Z,3.73
2022-12-03T22:13:52.552Z,3.79
2022-12-03T22:16:22.312Z,3.86
2022-12-03T22:18:50.617Z,3.83
2022-12-03T22:21:19.391Z,3.95
2022-12-03T22:23:47.083Z,3.78
2022-12-03T22:26:16.117Z,3.69
2022-12-03T22:28:46.090Z,3.67
2022-12-03T22:31:14.876Z,3.71
2022-12-03T22:33:43.431Z,3.71
2022-12-03T22:36:19.662Z,3.60
2022-12-03T22:38:47.860Z,3.84
2022-12-03T22:41:16.111Z,3.84
2022-12-03T22:43:45.675Z,3.59
2022-12-03T22:46:13.791Z,3.54
2022-12-03T22:48:41.985Z,3.57
2022-12-03T22:51:12.970Z,3.44
2022-12-03T22:53:42.132Z,3.55
2022-12-03T22:56:09.949Z,3.50
2022-12-03T22:58:38.726Z,3.71
2022-12-03T23:01:08.771Z,3.74
2022-12-03T23:03:37.633Z,3.69
2022-12-03T23:06:10.440Z,3.93
2022-12-03T23:08:38.370Z,3.99
2022-12-03T23:11:06.402Z,3.96
2022-12-03T23:13:34.183Z,3.87
2022-12-03T23:16:01.975Z,3.56
2022-12-03T23:18:31.688Z,3.58
2022-12-03T23:20:59.611Z,3.32
2022-12-03T23:23:28.362Z,3.35
2022-12-03T23:25:59.967Z,3.39
2022-12-03T23:28:28.727Z,3.46
2022-12-03T23:30:57.363Z,3.45
2022-12-03T23:33:26.788Z,3.47
2022-12-03T23:35:56.059Z,3.54
2022-12-03T23:38:24.166Z,3.67
2022-12-03T23:40:52.948Z,3.69
2022-12-03T23:43:21.860Z,3.67
2022-12-03T23:45:49.652Z,3.61
2022-12-03T23:48:17.557Z,3.20
2022-12-03T23:50:45.581Z,3.38
2022-12-03T23:53:15.089Z,3.43
2022-12-03T23:55:43.967Z,3.48
2022-12-03T23:58:11.870Z,3.60
